sensor_id;sensor_type;location;lat;lon;timestamp;P1;durP1;ratioP1;P2;durP2;ratioP2
10761;SDS011;5433;50.862;4.320;2024-02-15T00:01:17;11.15;;;5.50;;
10761;SDS011;5433;50.862;4.320;2024-02-15T00:03:43;14.93;;;5.97;;
10761;SDS011;5433;50.862;4.320;2024-02-15T00:06:09;11.93;;;6.18;;
10761;SDS011;5433;50.862;4.320;2024-02-15T00:08:35;12.50;;;5.68;;
10761;SDS011;5433;50.862;4.320;2024-02-15T00:11:01;13.25;;;5.97;;
10761;SDS011;5433;50.862;4.320;2024-02-15T00:13:27;15.13;;;5.82;;
10761;SDS011;5433;50.862;4.320;2024-02-15T00:15:54;14.27;;;5.75;;
10761;SDS011;5433;50.862;4.320;2024-02-15T00:18:20;18.00;;;5.80;;
10761;SDS011;5433;50.862;4.320;2024-02-15T00:20:46;13.35;;;6.03;;
10761;SDS011;5433;50.862;4.320;2024-02-15T00:23:13;15.23;;;5.90;;
10761;SDS011;5433;50.862;4.320;2024-02-15T00:25:41;16.05;;;6.18;;
10761;SDS011;5433;50.862;4.320;2024-02-15T00:28:09;14.00;;;5.60;;
10761;SDS011;5433;50.862;4.320;2024-02-15T00:30:35;14.52;;;5.95;;
10761;SDS011;5433;50.862;4.320;2024-02-15T00:33:02;13.10;;;5.40;;
10761;SDS011;5433;50.862;4.320;2024-02-15T00:35:28;15.68;;;5.35;;
10761;SDS011;5433;50.862;4.320;2024-02-15T00:37:54;15.85;;;5.63;;
10761;SDS011;5433;50.862;4.320;2024-02-15T00:40:20;13.80;;;4.97;;
10761;SDS011;5433;50.862;4.320;2024-02-15T00:42:46;11.23;;;5.00;;
10761;SDS011;5433;50.862;4.320;2024-02-15T00:45:12;9.80;;;4.38;;
10761;SDS011;5433;50.862;4.320;2024-02-15T00:47:38;10.65;;;4.65;;
10761;SDS011;5433;50.862;4.320;2024-02-15T00:50:07;11.10;;;4.10;;
10761;SDS011;5433;50.862;4.320;2024-02-15T00:52:33;10.02;;;4.30;;
10761;SDS011;5433;50.862;4.320;2024-02-15T00:54:59;10.52;;;4.05;;
10761;SDS011;5433;50.862;4.320;2024-02-15T00:57:25;10.95;;;4.20;;
10761;SDS011;5433;50.862;4.320;2024-02-15T00:59:51;9.15;;;3.83;;
10761;SDS011;5433;50.862;4.320;2024-02-15T01:02:17;8.07;;;3.67;;
10761;SDS011;5433;50.862;4.320;2024-02-15T01:04:43;10.65;;;3.92;;
10761;SDS011;5433;50.862;4.320;2024-02-15T01:07:11;10.68;;;3.90;;
10761;SDS011;5433;50.862;4.320;2024-02-15T01:09:37;10.82;;;4.20;;
10761;SDS011;5433;50.862;4.320;2024-02-15T01:12:03;8.93;;;3.50;;
10761;SDS011;5433;50.862;4.320;2024-02-15T01:14:30;7.25;;;3.35;;
10761;SDS011;5433;50.862;4.320;2024-02-15T01:16:56;8.45;;;3.40;;
10761;SDS011;5433;50.862;4.320;2024-02-15T01:19:22;8.57;;;3.20;;
10761;SDS011;5433;50.862;4.320;2024-02-15T01:21:48;7.97;;;2.85;;
10761;SDS011;5433;50.862;4.320;2024-02-15T01:24:14;8.93;;;2.97;;
10761;SDS011;5433;50.862;4.320;2024-02-15T01:26:40;7.45;;;2.75;;
10761;SDS011;5433;50.862;4.320;2024-02-15T01:29:06;6.07;;;3.00;;
10761;SDS011;5433;50.862;4.320;2024-02-15T01:31:35;7.78;;;3.08;;
10761;SDS011;5433;50.862;4.320;2024-02-15T01:34:01;8.43;;;2.85;;
10761;SDS011;5433;50.862;4.320;2024-02-15T01:36:27;6.75;;;2.58;;
10761;SDS011;5433;50.862;4.320;2024-02-15T01:38:53;10.00;;;2.47;;
10761;SDS011;5433;50.862;4.320;2024-02-15T01:41:19;8.10;;;2.95;;
10761;SDS011;5433;50.862;4.320;2024-02-15T01:43:45;7.53;;;2.92;;
10761;SDS011;5433;50.862;4.320;2024-02-15T01:46:12;5.50;;;2.67;;
10761;SDS011;5433;50.862;4.320;2024-02-15T01:48:40;8.63;;;2.83;;
10761;SDS011;5433;50.862;4.320;2024-02-15T01:51:10;8.75;;;2.58;;
10761;SDS011;5433;50.862;4.320;2024-02-15T01:53:37;9.18;;;2.70;;
10761;SDS011;5433;50.862;4.320;2024-02-15T01:56:04;8.57;;;2.80;;
10761;SDS011;5433;50.862;4.320;2024-02-15T01:58:30;6.63;;;2.65;;
10761;SDS011;5433;50.862;4.320;2024-02-15T02:00:57;6.90;;;2.50;;
10761;SDS011;5433;50.862;4.320;2024-02-15T02:03:23;6.10;;;2.70;;
10761;SDS011;5433;50.862;4.320;2024-02-15T02:05:49;7.28;;;2.63;;
10761;SDS011;5433;50.862;4.320;2024-02-15T02:08:15;4.57;;;2.45;;
10761;SDS011;5433;50.862;4.320;2024-02-15T02:10:41;9.00;;;2.58;;
10761;SDS011;5433;50.862;4.320;2024-02-15T02:13:07;7.65;;;2.40;;
10761;SDS011;5433;50.862;4.320;2024-02-15T02:15:34;5.63;;;2.60;;
10761;SDS011;5433;50.862;4.320;2024-02-15T02:18:02;8.18;;;2.40;;
10761;SDS011;5433;50.862;4.320;2024-02-15T02:20:28;5.47;;;2.70;;
10761;SDS011;5433;50.862;4.320;2024-02-15T02:22:54;7.78;;;2.40;;
10761;SDS011;5433;50.862;4.320;2024-02-15T02:25:25;5.55;;;2.78;;
10761;SDS011;5433;50.862;4.320;2024-02-15T02:27:51;7.10;;;2.47;;
10761;SDS011;5433;50.862;4.320;2024-02-15T02:30:17;5.93;;;2.33;;
10761;SDS011;5433;50.862;4.320;2024-02-15T02:32:47;9.60;;;2.45;;
10761;SDS011;5433;50.862;4.320;2024-02-15T02:35:13;6.85;;;2.55;;
10761;SDS011;5433;50.862;4.320;2024-02-15T02:37:41;7.10;;;2.40;;
10761;SDS011;5433;50.862;4.320;2024-02-15T02:40:07;7.07;;;2.58;;
10761;SDS011;5433;50.862;4.320;2024-02-15T02:42:35;6.50;;;2.05;;
10761;SDS011;5433;50.862;4.320;2024-02-15T02:45:01;4.40;;;2.42;;
10761;SDS011;5433;50.862;4.320;2024-02-15T02:47:27;5.95;;;2.70;;
10761;SDS011;5433;50.862;4.320;2024-02-15T02:49:53;5.93;;;2.30;;
10761;SDS011;5433;50.862;4.320;2024-02-15T02:52:19;4.00;;;2.20;;
10761;SDS011;5433;50.862;4.320;2024-02-15T02:54:45;6.35;;;2.17;;
10761;SDS011;5433;50.862;4.320;2024-02-15T02:57:11;4.65;;;2.25;;
10761;SDS011;5433;50.862;4.320;2024-02-15T02:59:37;8.45;;;2.53;;
10761;SDS011;5433;50.862;4.320;2024-02-15T03:02:04;6.37;;;2.23;;
10761;SDS011;5433;50.862;4.320;2024-02-15T03:04:33;5.68;;;2.03;;
10761;SDS011;5433;50.862;4.320;2024-02-15T03:06:59;6.78;;;2.40;;
10761;SDS011;5433;50.862;4.320;2024-02-15T03:09:24;5.78;;;2.45;;
10761;SDS011;5433;50.862;4.320;2024-02-15T03:11:54;5.82;;;2.60;;
10761;SDS011;5433;50.862;4.320;2024-02-15T03:14:20;4.55;;;2.00;;
10761;SDS011;5433;50.862;4.320;2024-02-15T03:16:46;7.63;;;2.15;;
10761;SDS011;5433;50.862;4.320;2024-02-15T03:19:12;5.47;;;2.55;;
10761;SDS011;5433;50.862;4.320;2024-02-15T03:21:38;7.10;;;2.40;;
10761;SDS011;5433;50.862;4.320;2024-02-15T03:24:06;6.63;;;2.30;;
10761;SDS011;5433;50.862;4.320;2024-02-15T03:26:32;8.13;;;2.55;;
10761;SDS011;5433;50.862;4.320;2024-02-15T03:29:01;7.93;;;2.60;;
10761;SDS011;5433;50.862;4.320;2024-02-15T03:31:28;6.20;;;2.35;;
10761;SDS011;5433;50.862;4.320;2024-02-15T03:33:54;7.22;;;2.28;;
10761;SDS011;5433;50.862;4.320;2024-02-15T03:36:20;7.03;;;2.55;;
10761;SDS011;5433;50.862;4.320;2024-02-15T03:38:46;5.82;;;2.30;;
10761;SDS011;5433;50.862;4.320;2024-02-15T03:41:17;4.50;;;2.17;;
10761;SDS011;5433;50.862;4.320;2024-02-15T03:43:43;6.35;;;2.55;;
10761;SDS011;5433;50.862;4.320;2024-02-15T03:46:09;6.28;;;2.30;;
10761;SDS011;5433;50.862;4.320;2024-02-15T03:48:37;5.60;;;2.30;;
10761;SDS011;5433;50.862;4.320;2024-02-15T03:51:03;7.53;;;2.40;;
10761;SDS011;5433;50.862;4.320;2024-02-15T03:53:31;6.05;;;2.40;;
10761;SDS011;5433;50.862;4.320;2024-02-15T03:55:58;5.35;;;2.20;;
10761;SDS011;5433;50.862;4.320;2024-02-15T03:58:25;6.82;;;2.80;;
10761;SDS011;5433;50.862;4.320;2024-02-15T04:00:51;7.07;;;2.40;;
10761;SDS011;5433;50.862;4.320;2024-02-15T04:03:17;7.75;;;2.90;;
10761;SDS011;5433;50.862;4.320;2024-02-15T04:05:43;5.38;;;2.55;;
10761;SDS011;5433;50.862;4.320;2024-02-15T04:08:09;5.97;;;2.88;;
10761;SDS011;5433;50.862;4.320;2024-02-15T04:10:35;7.38;;;2.60;;
10761;SDS011;5433;50.862;4.320;2024-02-15T04:13:01;5.97;;;2.70;;
10761;SDS011;5433;50.862;4.320;2024-02-15T04:15:27;6.63;;;2.90;;
10761;SDS011;5433;50.862;4.320;2024-02-15T04:17:53;7.40;;;3.22;;
10761;SDS011;5433;50.862;4.320;2024-02-15T04:20:21;6.18;;;3.10;;
10761;SDS011;5433;50.862;4.320;2024-02-15T04:22:47;10.15;;;3.08;;
10761;SDS011;5433;50.862;4.320;2024-02-15T04:25:15;6.88;;;2.80;;
10761;SDS011;5433;50.862;4.320;2024-02-15T04:27:42;7.22;;;2.70;;
10761;SDS011;5433;50.862;4.320;2024-02-15T04:30:08;6.32;;;2.78;;
10761;SDS011;5433;50.862;4.320;2024-02-15T04:32:35;9.45;;;3.55;;
10761;SDS011;5433;50.862;4.320;2024-02-15T04:35:01;7.07;;;3.05;;
10761;SDS011;5433;50.862;4.320;2024-02-15T04:37:29;6.57;;;2.70;;
10761;SDS011;5433;50.862;4.320;2024-02-15T04:39:57;6.50;;;2.80;;
10761;SDS011;5433;50.862;4.320;2024-02-15T04:42:23;8.90;;;3.15;;
10761;SDS011;5433;50.862;4.320;2024-02-15T04:44:51;7.30;;;2.83;;
10761;SDS011;5433;50.862;4.320;2024-02-15T04:47:19;7.68;;;2.85;;
10761;SDS011;5433;50.862;4.320;2024-02-15T04:49:45;6.50;;;2.55;;
10761;SDS011;5433;50.862;4.320;2024-02-15T04:52:11;6.28;;;3.15;;
10761;SDS011;5433;50.862;4.320;2024-02-15T04:54:37;9.90;;;3.08;;
10761;SDS011;5433;50.862;4.320;2024-02-15T04:57:03;9.93;;;3.38;;
10761;SDS011;5433;50.862;4.320;2024-02-15T04:59:29;6.72;;;2.72;;
10761;SDS011;5433;50.862;4.320;2024-02-15T05:01:55;9.73;;;3.30;;
10761;SDS011;5433;50.862;4.320;2024-02-15T05:04:21;9.77;;;3.30;;
10761;SDS011;5433;50.862;4.320;2024-02-15T05:06:49;7.38;;;3.00;;
10761;SDS011;5433;50.862;4.320;2024-02-15T05:09:15;10.40;;;3.17;;
10761;SDS011;5433;50.862;4.320;2024-02-15T05:11:43;8.52;;;2.92;;
10761;SDS011;5433;50.862;4.320;2024-02-15T05:14:15;7.00;;;2.83;;
10761;SDS011;5433;50.862;4.320;2024-02-15T05:16:45;6.53;;;2.83;;
10761;SDS011;5433;50.862;4.320;2024-02-15T05:19:12;4.93;;;2.50;;
10761;SDS011;5433;50.862;4.320;2024-02-15T05:21:38;7.97;;;2.55;;
10761;SDS011;5433;50.862;4.320;2024-02-15T05:24:05;5.30;;;2.08;;
10761;SDS011;5433;50.862;4.320;2024-02-15T05:26:31;7.00;;;2.67;;
10761;SDS011;5433;50.862;4.320;2024-02-15T05:28:58;7.45;;;2.22;;
10761;SDS011;5433;50.862;4.320;2024-02-15T05:31:24;7.85;;;2.50;;
10761;SDS011;5433;50.862;4.320;2024-02-15T05:33:51;5.80;;;1.98;;
10761;SDS011;5433;50.862;4.320;2024-02-15T05:36:18;6.13;;;2.22;;
10761;SDS011;5433;50.862;4.320;2024-02-15T05:38:45;4.53;;;1.90;;
10761;SDS011;5433;50.862;4.320;2024-02-15T05:41:11;4.85;;;2.10;;
10761;SDS011;5433;50.862;4.320;2024-02-15T05:43:38;4.03;;;2.17;;
10761;SDS011;5433;50.862;4.320;2024-02-15T05:46:08;4.38;;;1.95;;
10761;SDS011;5433;50.862;4.320;2024-02-15T05:48:34;6.63;;;1.90;;
10761;SDS011;5433;50.862;4.320;2024-02-15T05:51:01;11.93;;;2.20;;
10761;SDS011;5433;50.862;4.320;2024-02-15T05:53:28;4.53;;;1.70;;
10761;SDS011;5433;50.862;4.320;2024-02-15T05:55:54;6.95;;;2.03;;
10761;SDS011;5433;50.862;4.320;2024-02-15T05:58:22;4.55;;;1.70;;
10761;SDS011;5433;50.862;4.320;2024-02-15T06:00:48;4.43;;;2.03;;
10761;SDS011;5433;50.862;4.320;2024-02-15T06:03:15;5.25;;;1.80;;
10761;SDS011;5433;50.862;4.320;2024-02-15T06:05:42;3.45;;;1.80;;
10761;SDS011;5433;50.862;4.320;2024-02-15T06:08:09;5.93;;;1.90;;
10761;SDS011;5433;50.862;4.320;2024-02-15T06:10:37;5.07;;;2.10;;
10761;SDS011;5433;50.862;4.320;2024-02-15T06:13:03;5.95;;;2.17;;
10761;SDS011;5433;50.862;4.320;2024-02-15T06:15:29;6.53;;;2.67;;
10761;SDS011;5433;50.862;4.320;2024-02-15T06:17:56;6.18;;;1.92;;
10761;SDS011;5433;50.862;4.320;2024-02-15T06:20:22;5.55;;;2.05;;
10761;SDS011;5433;50.862;4.320;2024-02-15T06:22:50;5.07;;;1.70;;
10761;SDS011;5433;50.862;4.320;2024-02-15T06:25:20;4.00;;;1.80;;
10761;SDS011;5433;50.862;4.320;2024-02-15T06:27:46;2.90;;;1.58;;
10761;SDS011;5433;50.862;4.320;2024-02-15T06:30:14;3.38;;;1.75;;
10761;SDS011;5433;50.862;4.320;2024-02-15T06:32:58;5.93;;;2.25;;
10761;SDS011;5433;50.862;4.320;2024-02-15T06:35:43;6.50;;;2.15;;
10761;SDS011;5433;50.862;4.320;2024-02-15T06:38:28;4.95;;;1.60;;
10761;SDS011;5433;50.862;4.320;2024-02-15T06:41:13;4.20;;;1.60;;
10761;SDS011;5433;50.862;4.320;2024-02-15T06:43:39;4.57;;;1.70;;
10761;SDS011;5433;50.862;4.320;2024-02-15T06:46:08;5.72;;;1.70;;
10761;SDS011;5433;50.862;4.320;2024-02-15T06:48:35;4.93;;;1.83;;
10761;SDS011;5433;50.862;4.320;2024-02-15T06:51:02;5.32;;;1.63;;
10761;SDS011;5433;50.862;4.320;2024-02-15T06:53:28;2.85;;;1.60;;
10761;SDS011;5433;50.862;4.320;2024-02-15T06:55:55;6.93;;;2.10;;
10761;SDS011;5433;50.862;4.320;2024-02-15T06:58:21;4.70;;;1.83;;
10761;SDS011;5433;50.862;4.320;2024-02-15T07:00:48;3.17;;;1.90;;
10761;SDS011;5433;50.862;4.320;2024-02-15T07:03:15;4.07;;;1.80;;
10761;SDS011;5433;50.862;4.320;2024-02-15T07:05:42;2.85;;;1.50;;
10761;SDS011;5433;50.862;4.320;2024-02-15T07:08:08;5.93;;;1.90;;
10761;SDS011;5433;50.862;4.320;2024-02-15T07:10:40;4.05;;;1.60;;
10761;SDS011;5433;50.862;4.320;2024-02-15T07:13:06;4.70;;;1.88;;
10761;SDS011;5433;50.862;4.320;2024-02-15T07:15:35;3.65;;;1.77;;
10761;SDS011;5433;50.862;4.320;2024-02-15T07:18:04;5.07;;;2.00;;
10761;SDS011;5433;50.862;4.320;2024-02-15T07:20:31;3.05;;;1.60;;
10761;SDS011;5433;50.862;4.320;2024-02-15T07:22:57;3.50;;;1.73;;
10761;SDS011;5433;50.862;4.320;2024-02-15T07:25:23;5.97;;;1.90;;
10761;SDS011;5433;50.862;4.320;2024-02-15T07:27:49;3.25;;;1.70;;
10761;SDS011;5433;50.862;4.320;2024-02-15T07:30:15;5.43;;;2.20;;
10761;SDS011;5433;50.862;4.320;2024-02-15T07:32:41;3.95;;;1.80;;
10761;SDS011;5433;50.862;4.320;2024-02-15T07:35:07;4.18;;;1.80;;
10761;SDS011;5433;50.862;4.320;2024-02-15T07:37:33;3.15;;;2.00;;
10761;SDS011;5433;50.862;4.320;2024-02-15T07:39:59;3.83;;;1.77;;
10761;SDS011;5433;50.862;4.320;2024-02-15T07:42:25;4.75;;;1.77;;
10761;SDS011;5433;50.862;4.320;2024-02-15T07:44:52;5.97;;;2.38;;
10761;SDS011;5433;50.862;4.320;2024-02-15T07:47:18;6.50;;;2.08;;
10761;SDS011;5433;50.862;4.320;2024-02-15T07:49:48;3.97;;;1.95;;
10761;SDS011;5433;50.862;4.320;2024-02-15T07:52:14;2.78;;;1.90;;
10761;SDS011;5433;50.862;4.320;2024-02-15T07:54:40;6.88;;;1.98;;
10761;SDS011;5433;50.862;4.320;2024-02-15T07:57:16;3.70;;;1.70;;
10761;SDS011;5433;50.862;4.320;2024-02-15T07:59:42;3.15;;;1.65;;
10761;SDS011;5433;50.862;4.320;2024-02-15T08:02:09;4.30;;;1.75;;
10761;SDS011;5433;50.862;4.320;2024-02-15T08:04:37;3.60;;;1.70;;
10761;SDS011;5433;50.862;4.320;2024-02-15T08:07:05;5.03;;;1.90;;
10761;SDS011;5433;50.862;4.320;2024-02-15T08:09:35;5.50;;;1.92;;
10761;SDS011;5433;50.862;4.320;2024-02-15T08:12:01;3.80;;;1.80;;
10761;SDS011;5433;50.862;4.320;2024-02-15T08:14:28;5.07;;;1.92;;
10761;SDS011;5433;50.862;4.320;2024-02-15T08:16:54;6.50;;;1.90;;
10761;SDS011;5433;50.862;4.320;2024-02-15T08:19:20;3.40;;;1.60;;
10761;SDS011;5433;50.862;4.320;2024-02-15T08:21:48;4.82;;;1.58;;
10761;SDS011;5433;50.862;4.320;2024-02-15T08:24:15;3.50;;;1.63;;
10761;SDS011;5433;50.862;4.320;2024-02-15T08:26:42;4.90;;;1.75;;
10761;SDS011;5433;50.862;4.320;2024-02-15T08:29:08;3.60;;;1.77;;
10761;SDS011;5433;50.862;4.320;2024-02-15T08:31:39;4.72;;;1.80;;
10761;SDS011;5433;50.862;4.320;2024-02-15T08:34:06;5.68;;;2.00;;
10761;SDS011;5433;50.862;4.320;2024-02-15T08:36:35;3.92;;;1.65;;
10761;SDS011;5433;50.862;4.320;2024-02-15T08:39:01;4.95;;;1.70;;
10761;SDS011;5433;50.862;4.320;2024-02-15T08:41:29;4.28;;;1.70;;
10761;SDS011;5433;50.862;4.320;2024-02-15T08:43:55;3.42;;;1.70;;
10761;SDS011;5433;50.862;4.320;2024-02-15T08:46:26;3.25;;;1.85;;
10761;SDS011;5433;50.862;4.320;2024-02-15T08:48:52;4.50;;;1.80;;
10761;SDS011;5433;50.862;4.320;2024-02-15T08:51:18;4.47;;;1.88;;
10761;SDS011;5433;50.862;4.320;2024-02-15T08:53:45;5.20;;;1.83;;
10761;SDS011;5433;50.862;4.320;2024-02-15T08:56:12;3.22;;;1.77;;
10761;SDS011;5433;50.862;4.320;2024-02-15T08:58:38;4.28;;;1.70;;
10761;SDS011;5433;50.862;4.320;2024-02-15T09:01:05;4.25;;;1.95;;
10761;SDS011;5433;50.862;4.320;2024-02-15T09:03:33;3.10;;;1.73;;
10761;SDS011;5433;50.862;4.320;2024-02-15T09:05:59;2.50;;;1.60;;
10761;SDS011;5433;50.862;4.320;2024-02-15T09:08:28;3.95;;;1.83;;
10761;SDS011;5433;50.862;4.320;2024-02-15T09:10:55;2.97;;;1.95;;
10761;SDS011;5433;50.862;4.320;2024-02-15T09:13:23;4.55;;;1.90;;
10761;SDS011;5433;50.862;4.320;2024-02-15T09:15:49;4.70;;;1.92;;
10761;SDS011;5433;50.862;4.320;2024-02-15T09:18:15;4.30;;;1.77;;
10761;SDS011;5433;50.862;4.320;2024-02-15T09:20:43;4.97;;;1.98;;
10761;SDS011;5433;50.862;4.320;2024-02-15T09:23:12;2.58;;;1.42;;
10761;SDS011;5433;50.862;4.320;2024-02-15T09:25:39;4.50;;;1.70;;
10761;SDS011;5433;50.862;4.320;2024-02-15T09:28:07;2.92;;;1.67;;
10761;SDS011;5433;50.862;4.320;2024-02-15T09:30:33;3.83;;;1.77;;
10761;SDS011;5433;50.862;4.320;2024-02-15T09:33:00;3.88;;;1.98;;
10761;SDS011;5433;50.862;4.320;2024-02-15T09:35:30;6.32;;;2.15;;
10761;SDS011;5433;50.862;4.320;2024-02-15T09:37:56;5.40;;;1.70;;
10761;SDS011;5433;50.862;4.320;2024-02-15T09:40:22;5.13;;;1.88;;
10761;SDS011;5433;50.862;4.320;2024-02-15T09:42:51;5.07;;;2.00;;
10761;SDS011;5433;50.862;4.320;2024-02-15T09:45:17;3.90;;;2.20;;
10761;SDS011;5433;50.862;4.320;2024-02-15T09:47:45;4.75;;;2.20;;
10761;SDS011;5433;50.862;4.320;2024-02-15T09:50:14;5.43;;;2.00;;
10761;SDS011;5433;50.862;4.320;2024-02-15T09:52:43;8.90;;;2.05;;
10761;SDS011;5433;50.862;4.320;2024-02-15T09:55:09;3.70;;;1.90;;
10761;SDS011;5433;50.862;4.320;2024-02-15T09:57:39;7.85;;;2.08;;
10761;SDS011;5433;50.862;4.320;2024-02-15T10:00:06;6.75;;;1.90;;
10761;SDS011;5433;50.862;4.320;2024-02-15T10:02:32;7.03;;;2.13;;
10761;SDS011;5433;50.862;4.320;2024-02-15T10:05:00;4.43;;;1.80;;
10761;SDS011;5433;50.862;4.320;2024-02-15T10:07:27;3.50;;;1.95;;
10761;SDS011;5433;50.862;4.320;2024-02-15T10:09:53;6.97;;;2.05;;
10761;SDS011;5433;50.862;4.320;2024-02-15T10:12:19;2.70;;;1.90;;
10761;SDS011;5433;50.862;4.320;2024-02-15T10:14:50;2.40;;;1.58;;
10761;SDS011;5433;50.862;4.320;2024-02-15T10:17:18;4.90;;;1.67;;
10761;SDS011;5433;50.862;4.320;2024-02-15T10:19:44;3.25;;;1.73;;
10761;SDS011;5433;50.862;4.320;2024-02-15T10:22:12;9.45;;;4.90;;
10761;SDS011;5433;50.862;4.320;2024-02-15T10:24:39;4.20;;;1.60;;
10761;SDS011;5433;50.862;4.320;2024-02-15T10:27:05;5.43;;;2.50;;
10761;SDS011;5433;50.862;4.320;2024-02-15T10:32:36;4.05;;;1.92;;
10761;SDS011;5433;50.862;4.320;2024-02-15T10:35:02;5.55;;;1.85;;
10761;SDS011;5433;50.862;4.320;2024-02-15T10:37:29;4.45;;;1.90;;
10761;SDS011;5433;50.862;4.320;2024-02-15T10:40:04;2.13;;;1.30;;
10761;SDS011;5433;50.862;4.320;2024-02-15T10:42:34;2.75;;;1.80;;
10761;SDS011;5433;50.862;4.320;2024-02-15T10:45:02;5.13;;;1.65;;
10761;SDS011;5433;50.862;4.320;2024-02-15T10:47:39;4.05;;;1.90;;
10761;SDS011;5433;50.862;4.320;2024-02-15T10:50:06;3.22;;;1.70;;
10761;SDS011;5433;50.862;4.320;2024-02-15T10:52:32;2.85;;;1.85;;
10761;SDS011;5433;50.862;4.320;2024-02-15T10:55:04;5.60;;;1.73;;
10761;SDS011;5433;50.862;4.320;2024-02-15T10:57:34;4.47;;;1.88;;
10761;SDS011;5433;50.862;4.320;2024-02-15T11:00:04;4.07;;;1.98;;
10761;SDS011;5433;50.862;4.320;2024-02-15T11:02:41;4.13;;;2.15;;
10761;SDS011;5433;50.862;4.320;2024-02-15T11:05:08;3.65;;;1.77;;
10761;SDS011;5433;50.862;4.320;2024-02-15T11:07:39;2.30;;;1.48;;
10761;SDS011;5433;50.862;4.320;2024-02-15T11:10:08;4.47;;;1.70;;
10761;SDS011;5433;50.862;4.320;2024-02-15T11:12:35;3.47;;;1.60;;
10761;SDS011;5433;50.862;4.320;2024-02-15T11:15:02;2.08;;;1.50;;
10761;SDS011;5433;50.862;4.320;2024-02-15T11:20:05;4.25;;;1.40;;
10761;SDS011;5433;50.862;4.320;2024-02-15T11:22:34;3.63;;;1.60;;
10761;SDS011;5433;50.862;4.320;2024-02-15T11:25:04;3.35;;;2.10;;
10761;SDS011;5433;50.862;4.320;2024-02-15T11:27:33;3.00;;;1.75;;
10761;SDS011;5433;50.862;4.320;2024-02-15T11:30:01;2.70;;;1.20;;
10761;SDS011;5433;50.862;4.320;2024-02-15T11:32:42;2.40;;;1.77;;
10761;SDS011;5433;50.862;4.320;2024-02-15T11:42:42;2.10;;;1.30;;
10761;SDS011;5433;50.862;4.320;2024-02-15T11:45:08;3.80;;;2.40;;
10761;SDS011;5433;50.862;4.320;2024-02-15T11:47:38;2.78;;;1.55;;
10761;SDS011;5433;50.862;4.320;2024-02-15T11:50:08;4.55;;;1.70;;
10761;SDS011;5433;50.862;4.320;2024-02-15T11:52:37;1.63;;;1.27;;
10761;SDS011;5433;50.862;4.320;2024-02-15T11:55:06;2.80;;;1.30;;
10761;SDS011;5433;50.862;4.320;2024-02-15T11:57:35;3.47;;;1.40;;
10761;SDS011;5433;50.862;4.320;2024-02-15T12:00:04;4.40;;;1.85;;
10761;SDS011;5433;50.862;4.320;2024-02-15T12:03:00;4.22;;;1.83;;
10761;SDS011;5433;50.862;4.320;2024-02-15T12:05:45;2.75;;;1.60;;
10761;SDS011;5433;50.862;4.320;2024-02-15T12:08:29;3.33;;;1.92;;
10761;SDS011;5433;50.862;4.320;2024-02-15T12:11:14;5.75;;;1.70;;
10761;SDS011;5433;50.862;4.320;2024-02-15T12:13:59;2.30;;;1.40;;
10761;SDS011;5433;50.862;4.320;2024-02-15T12:16:43;3.22;;;1.40;;
10761;SDS011;5433;50.862;4.320;2024-02-15T12:22:46;2.05;;;1.40;;
10761;SDS011;5433;50.862;4.320;2024-02-15T12:25:13;1.95;;;1.20;;
10761;SDS011;5433;50.862;4.320;2024-02-15T12:27:43;2.25;;;1.45;;
10761;SDS011;5433;50.862;4.320;2024-02-15T12:30:16;2.05;;;1.50;;
10761;SDS011;5433;50.862;4.320;2024-02-15T12:38:28;3.53;;;1.70;;
10761;SDS011;5433;50.862;4.320;2024-02-15T12:40:54;5.50;;;2.17;;
10761;SDS011;5433;50.862;4.320;2024-02-15T12:43:20;4.53;;;1.80;;
10761;SDS011;5433;50.862;4.320;2024-02-15T12:45:46;4.82;;;2.05;;
10761;SDS011;5433;50.862;4.320;2024-02-15T12:48:12;4.00;;;2.17;;
10761;SDS011;5433;50.862;4.320;2024-02-15T12:50:40;4.60;;;2.50;;
10761;SDS011;5433;50.862;4.320;2024-02-15T12:53:06;5.55;;;2.15;;
10761;SDS011;5433;50.862;4.320;2024-02-15T12:55:33;5.13;;;2.30;;
10761;SDS011;5433;50.862;4.320;2024-02-15T12:58:00;4.18;;;2.15;;
10761;SDS011;5433;50.862;4.320;2024-02-15T13:00:28;2.25;;;1.70;;
10761;SDS011;5433;50.862;4.320;2024-02-15T13:02:57;1.63;;;1.50;;
10761;SDS011;5433;50.862;4.320;2024-02-15T13:05:26;3.92;;;1.90;;
10761;SDS011;5433;50.862;4.320;2024-02-15T13:07:52;2.83;;;1.73;;
10761;SDS011;5433;50.862;4.320;2024-02-15T13:10:22;4.10;;;1.60;;
10761;SDS011;5433;50.862;4.320;2024-02-15T13:12:51;2.83;;;1.38;;
10761;SDS011;5433;50.862;4.320;2024-02-15T13:15:17;2.67;;;1.60;;
10761;SDS011;5433;50.862;4.320;2024-02-15T13:17:45;4.80;;;1.60;;
10761;SDS011;5433;50.862;4.320;2024-02-15T13:20:11;2.78;;;1.30;;
10761;SDS011;5433;50.862;4.320;2024-02-15T13:22:39;4.13;;;1.55;;
10761;SDS011;5433;50.862;4.320;2024-02-15T13:25:06;2.90;;;1.30;;
10761;SDS011;5433;50.862;4.320;2024-02-15T13:27:34;3.17;;;1.27;;
10761;SDS011;5433;50.862;4.320;2024-02-15T13:30:00;2.50;;;1.38;;
10761;SDS011;5433;50.862;4.320;2024-02-15T13:32:26;2.58;;;1.20;;
10761;SDS011;5433;50.862;4.320;2024-02-15T13:34:53;1.80;;;1.33;;
10761;SDS011;5433;50.862;4.320;2024-02-15T13:37:24;2.85;;;1.45;;
10761;SDS011;5433;50.862;4.320;2024-02-15T13:39:51;2.63;;;1.10;;
10761;SDS011;5433;50.862;4.320;2024-02-15T13:42:17;2.08;;;1.27;;
10761;SDS011;5433;50.862;4.320;2024-02-15T13:44:44;3.75;;;1.40;;
10761;SDS011;5433;50.862;4.320;2024-02-15T13:47:11;4.25;;;1.15;;
10761;SDS011;5433;50.862;4.320;2024-02-15T13:49:37;2.72;;;1.30;;
10761;SDS011;5433;50.862;4.320;2024-02-15T13:52:04;2.33;;;1.20;;
10761;SDS011;5433;50.862;4.320;2024-02-15T13:54:31;2.33;;;1.30;;
10761;SDS011;5433;50.862;4.320;2024-02-15T13:56:58;2.28;;;1.17;;
10761;SDS011;5433;50.862;4.320;2024-02-15T13:59:26;3.92;;;1.30;;
10761;SDS011;5433;50.862;4.320;2024-02-15T14:01:52;1.42;;;1.00;;
10761;SDS011;5433;50.862;4.320;2024-02-15T14:04:18;3.15;;;1.40;;
10761;SDS011;5433;50.862;4.320;2024-02-15T14:06:44;3.22;;;1.15;;
10761;SDS011;5433;50.862;4.320;2024-02-15T14:09:11;1.55;;;1.10;;
10761;SDS011;5433;50.862;4.320;2024-02-15T14:11:37;3.47;;;1.23;;
10761;SDS011;5433;50.862;4.320;2024-02-15T14:14:04;4.85;;;1.40;;
10761;SDS011;5433;50.862;4.320;2024-02-15T14:16:30;2.17;;;1.20;;
10761;SDS011;5433;50.862;4.320;2024-02-15T14:18:56;3.50;;;1.38;;
10761;SDS011;5433;50.862;4.320;2024-02-15T14:21:22;2.15;;;1.13;;
10761;SDS011;5433;50.862;4.320;2024-02-15T14:23:48;2.28;;;1.10;;
10761;SDS011;5433;50.862;4.320;2024-02-15T14:26:14;2.42;;;1.30;;
10761;SDS011;5433;50.862;4.320;2024-02-15T14:28:42;2.60;;;1.13;;
10761;SDS011;5433;50.862;4.320;2024-02-15T14:31:09;2.35;;;1.10;;
10761;SDS011;5433;50.862;4.320;2024-02-15T14:33:54;1.83;;;1.00;;
10761;SDS011;5433;50.862;4.320;2024-02-15T14:36:20;2.10;;;1.40;;
10761;SDS011;5433;50.862;4.320;2024-02-15T14:38:46;3.38;;;1.40;;
10761;SDS011;5433;50.862;4.320;2024-02-15T14:41:12;2.85;;;1.20;;
10761;SDS011;5433;50.862;4.320;2024-02-15T14:43:39;3.85;;;1.30;;
10761;SDS011;5433;50.862;4.320;2024-02-15T14:46:05;2.55;;;1.20;;
10761;SDS011;5433;50.862;4.320;2024-02-15T14:48:33;1.55;;;1.00;;
10761;SDS011;5433;50.862;4.320;2024-02-15T14:50:59;2.92;;;1.20;;
10761;SDS011;5433;50.862;4.320;2024-02-15T14:53:25;2.38;;;1.20;;
10761;SDS011;5433;50.862;4.320;2024-02-15T14:55:54;2.35;;;1.20;;
10761;SDS011;5433;50.862;4.320;2024-02-15T14:58:20;4.45;;;1.20;;
10761;SDS011;5433;50.862;4.320;2024-02-15T15:00:49;3.30;;;1.40;;
10761;SDS011;5433;50.862;4.320;2024-02-15T15:03:16;2.38;;;1.10;;
10761;SDS011;5433;50.862;4.320;2024-02-15T15:05:42;1.90;;;1.20;;
10761;SDS011;5433;50.862;4.320;2024-02-15T15:08:27;1.85;;;1.20;;
10761;SDS011;5433;50.862;4.320;2024-02-15T15:11:12;1.20;;;1.10;;
10761;SDS011;5433;50.862;4.320;2024-02-15T15:13:56;2.38;;;1.40;;
10761;SDS011;5433;50.862;4.320;2024-02-15T15:16:23;3.88;;;1.50;;
10761;SDS011;5433;50.862;4.320;2024-02-15T15:18:50;2.58;;;1.23;;
10761;SDS011;5433;50.862;4.320;2024-02-15T15:21:17;3.15;;;1.70;;
10761;SDS011;5433;50.862;4.320;2024-02-15T15:23:56;3.42;;;1.38;;
10761;SDS011;5433;50.862;4.320;2024-02-15T15:26:45;2.20;;;1.50;;